Language: 


Des rapports , des résumés tant et plus, au choix de chacun....


Données Historiques de Météogheer
Journalier Rapport pour Janvier 28, 2018 Unitée:  Les deux    Impériale   Métrique
Suivant Jour »
Journalier Hebdomadaire Mensuel Annuel Sur mesure
  Max: Min: Moyenne:
Température: 54 °F /  12.2 °C 45 °F /  7.2 °C 50.9 °F /  10.5 °C
Point de rosée: 51.8 °F /  11.0 °C 44.6 °F /  7.0 °C 50.4 °F /  10.2 °C
Humidité: 98% 91% 96%
Vent: 23.9mph /  38.5km/h - 10.9mph /  17.5km/h
Rafales: 26.4mph /  42.5km/h - -
Vent- - WSW
Pression: 30.5 in /  1032.1 hPa 30.3 in /  1027.0 hPa -
Pluie: 0.01 in /  0.3 mm    
Historical Graphs
 
 
Données tabulaires pour Janvier 28, 2018
Heure Température Point de rosée Pression Vent Vent Rafales Humidité Pluie Taux (Horaire) Conditions
00:02 45 °F /  7.2 °C 44.6 °F /  7.0 °C 30.3in /  1027.0hPa SSW 8.5mph /  13.7km/h 9.8mph /  15.8km/h 98% 0in /  0.0mm
00:07 45 °F /  7.2 °C 44.6 °F /  7.0 °C 30.3in /  1027.0hPa SW 7.8mph /  12.6km/h 9.8mph /  15.8km/h 98% 0in /  0.0mm
00:12 45.1 °F /  7.3 °C 44.6 °F /  7.0 °C 30.3in /  1027.0hPa SSW 8.7mph /  14.0km/h 9.8mph /  15.8km/h 98% 0in /  0.0mm
00:17 45.1 °F /  7.3 °C 44.6 °F /  7.0 °C 30.3in /  1027.0hPa SW 7.4mph /  11.9km/h 12.8mph /  20.6km/h 98% 0in /  0.0mm
00:22 45.1 °F /  7.3 °C 44.6 °F /  7.0 °C 30.3in /  1027.0hPa SW 10.1mph /  16.3km/h 12.8mph /  20.6km/h 98% 0in /  0.0mm
00:27 45.3 °F /  7.4 °C 44.6 °F /  7.0 °C 30.3in /  1027.0hPa SSW 8.5mph /  13.7km/h 10.7mph /  17.2km/h 98% 0in /  0.0mm
00:32 45.3 °F /  7.4 °C 44.6 °F /  7.0 °C 30.3in /  1027.0hPa SW 10.5mph /  16.9km/h 13mph /  20.9km/h 98% 0in /  0.0mm
00:37 45.5 °F /  7.5 °C 46.4 °F /  8.0 °C 30.3in /  1027.0hPa WSW 8.5mph /  13.7km/h 13mph /  20.9km/h 98% 0in /  0.0mm
00:43 45.5 °F /  7.5 °C 46.4 °F /  8.0 °C 30.3in /  1027.0hPa WSW 7.8mph /  12.6km/h 12.1mph /  19.5km/h 98% 0in /  0.0mm
00:48 45.7 °F /  7.6 °C 46.4 °F /  8.0 °C 30.3in /  1027.0hPa WSW 7.6mph /  12.2km/h 12.1mph /  19.5km/h 98% 0in /  0.0mm
00:53 45.7 °F /  7.6 °C 46.4 °F /  8.0 °C 30.3in /  1027.0hPa SW 6mph /  9.7km/h 11.9mph /  19.1km/h 98% 0in /  0.0mm
00:58 45.9 °F /  7.7 °C 46.4 °F /  8.0 °C 30.3in /  1027.0hPa SW 6.5mph /  10.5km/h 11.9mph /  19.1km/h 98% 0in /  0.0mm
01:03 45.9 °F /  7.7 °C 46.4 °F /  8.0 °C 30.3in /  1027.0hPa SW 6.5mph /  10.5km/h 8.5mph /  13.7km/h 98% 0in /  0.0mm
01:08 46 °F /  7.8 °C 46.4 °F /  8.0 °C 30.3in /  1027.0hPa SSW 5.8mph /  9.3km/h 8.7mph /  14.0km/h 98% 0in /  0.0mm
01:13 46 °F /  7.8 °C 46.4 °F /  8.0 °C 30.3in /  1027.0hPa SW 6.9mph /  11.1km/h 8.7mph /  14.0km/h 98% 0in /  0.0mm
01:18 46 °F /  7.8 °C 46.4 °F /  8.0 °C 30.3in /  1027.0hPa SSW 6mph /  9.7km/h 9.8mph /  15.8km/h 98% 0in /  0.0mm
01:23 46 °F /  7.8 °C 46.4 °F /  8.0 °C 30.3in /  1027.0hPa SW 5.6mph /  9.0km/h 9.8mph /  15.8km/h 98% 0.01in /  0.3mm
01:28 46.2 °F /  7.9 °C 46.4 °F /  8.0 °C 30.3in /  1027.0hPa WSW 5.6mph /  9.0km/h 9.6mph /  15.4km/h 98% 0.01in /  0.3mm
01:33 46.2 °F /  7.9 °C 46.4 °F /  8.0 °C 30.3in /  1027.0hPa SW 7.2mph /  11.6km/h 9.6mph /  15.4km/h 98% 0.01in /  0.3mm
01:38 46.2 °F /  7.9 °C 46.4 °F /  8.0 °C 30.3in /  1027.0hPa WSW 5.6mph /  9.0km/h 8.5mph /  13.7km/h 98% 0.01in /  0.3mm
01:43 46.4 °F /  8.0 °C 46.4 °F /  8.0 °C 30.3in /  1027.0hPa WSW 6.3mph /  10.1km/h 7.8mph /  12.6km/h 98% 0.01in /  0.3mm
01:48 46.4 °F /  8.0 °C 46.4 °F /  8.0 °C 30.3in /  1027.0hPa SSW 5.6mph /  9.0km/h 7.6mph /  12.2km/h 98% 0.01in /  0.3mm
01:53 46.4 °F /  8.0 °C 46.4 °F /  8.0 °C 30.3in /  1027.0hPa WSW 5.4mph /  8.7km/h 7.2mph /  11.6km/h 98% 0.01in /  0.3mm
01:58 46.6 °F /  8.1 °C 46.4 °F /  8.0 °C 30.3in /  1027.0hPa SW 8.5mph /  13.7km/h 8.5mph /  13.7km/h 98% 0.01in /  0.3mm
02:03 46.6 °F /  8.1 °C 46.4 °F /  8.0 °C 30.3in /  1027.0hPa WSW 8.1mph /  13.0km/h 8.7mph /  14.0km/h 98% 0.01in /  0.3mm
02:08 46.6 °F /  8.1 °C 46.4 °F /  8.0 °C 30.3in /  1027.0hPa WSW 7.4mph /  11.9km/h 8.7mph /  14.0km/h 98% 0.01in /  0.3mm
02:13 46.6 °F /  8.1 °C 46.4 °F /  8.0 °C 30.3in /  1027.0hPa SW 8.5mph /  13.7km/h 9.2mph /  14.8km/h 98% 0.01in /  0.3mm
02:18 46.8 °F /  8.2 °C 46.4 °F /  8.0 °C 30.3in /  1027.0hPa WSW 7.8mph /  12.6km/h 10.5mph /  16.9km/h 98% 0.01in /  0.3mm
02:23 46.9 °F /  8.3 °C 48.2 °F /  9.0 °C 30.3in /  1027.0hPa SW 7.2mph /  11.6km/h 12.8mph /  20.6km/h 98% 0in /  0.0mm
02:28 47.1 °F /  8.4 °C 48.2 °F /  9.0 °C 30.3in /  1027.0hPa WSW 6.5mph /  10.5km/h 12.8mph /  20.6km/h 98% 0in /  0.0mm
02:33 47.1 °F /  8.4 °C 48.2 °F /  9.0 °C 30.3in /  1027.0hPa WSW 6.3mph /  10.1km/h 12.1mph /  19.5km/h 98% 0in /  0.0mm
02:34 47.1 °F /  8.4 °C 48.2 °F /  9.0 °C 30.3in /  1027.0hPa SW 6.5mph /  10.5km/h 12.1mph /  19.5km/h 98% 0in /  0.0mm
02:39 47.3 °F /  8.5 °C 48.2 °F /  9.0 °C 30.3in /  1027.0hPa SSW 8.7mph /  14.0km/h 12.1mph /  19.5km/h 98% 0in /  0.0mm
02:44 47.3 °F /  8.5 °C 48.2 °F /  9.0 °C 30.3in /  1027.0hPa WSW 7.6mph /  12.2km/h 11mph /  17.7km/h 98% 0in /  0.0mm
02:49 47.5 °F /  8.6 °C 48.2 °F /  9.0 °C 30.3in /  1027.0hPa SW 6mph /  9.7km/h 11mph /  17.7km/h 98% 0in /  0.0mm
02:54 47.7 °F /  8.7 °C 48.2 °F /  9.0 °C 30.3in /  1027.0hPa SW 5.8mph /  9.3km/h 10.7mph /  17.2km/h 98% 0in /  0.0mm
02:59 47.7 °F /  8.7 °C 48.2 °F /  9.0 °C 30.3in /  1027.0hPa WSW 6.5mph /  10.5km/h 10.5mph /  16.9km/h 98% 0in /  0.0mm
03:04 47.8 °F /  8.8 °C 48.2 °F /  9.0 °C 30.3in /  1027.0hPa WSW 6mph /  9.7km/h 11.2mph /  18.0km/h 98% 0in /  0.0mm
03:09 48 °F /  8.9 °C 48.2 °F /  9.0 °C 30.3in /  1027.0hPa SW 7.8mph /  12.6km/h 11.2mph /  18.0km/h 98% 0in /  0.0mm
03:14 48.2 °F /  9.0 °C 48.2 °F /  9.0 °C 30.3in /  1027.0hPa SW 10.3mph /  16.6km/h 11mph /  17.7km/h 98% 0in /  0.0mm
03:19 48.4 °F /  9.1 °C 48.2 °F /  9.0 °C 30.3in /  1027.0hPa SW 9.6mph /  15.4km/h 14.5mph /  23.3km/h 98% 0in /  0.0mm
03:24 48.6 °F /  9.2 °C 48.2 °F /  9.0 °C 30.3in /  1027.0hPa WSW 8.1mph /  13.0km/h 14.5mph /  23.3km/h 98% 0in /  0.0mm
03:29 48.6 °F /  9.2 °C 48.2 °F /  9.0 °C 30.4in /  1028.0hPa SSW 9.2mph /  14.8km/h 10.7mph /  17.2km/h 98% 0in /  0.0mm
03:35 48.6 °F /  9.2 °C 48.2 °F /  9.0 °C 30.4in /  1028.0hPa SW 5.4mph /  8.7km/h 9.8mph /  15.8km/h 98% 0in /  0.0mm
03:40 48.7 °F /  9.3 °C 48.2 °F /  9.0 °C 30.4in /  1028.0hPa WSW 5.6mph /  9.0km/h 8.7mph /  14.0km/h 98% 0in /  0.0mm
03:45 48.7 °F /  9.3 °C 48.2 °F /  9.0 °C 30.3in /  1027.0hPa WSW 8.5mph /  13.7km/h 9.4mph /  15.1km/h 98% 0in /  0.0mm
03:50 48.9 °F /  9.4 °C 48.2 °F /  9.0 °C 30.3in /  1027.0hPa WSW 8.1mph /  13.0km/h 10.7mph /  17.2km/h 98% 0in /  0.0mm
03:55 48.9 °F /  9.4 °C 48.2 °F /  9.0 °C 30.3in /  1027.0hPa WSW 10.3mph /  16.6km/h 10.7mph /  17.2km/h 98% 0in /  0.0mm
04:00 48.9 °F /  9.4 °C 48.2 °F /  9.0 °C 30.4in /  1028.0hPa WSW 8.1mph /  13.0km/h 10.3mph /  16.6km/h 98% 0in /  0.0mm
04:05 48.9 °F /  9.4 °C 48.2 °F /  9.0 °C 30.4in /  1028.0hPa SW 7.2mph /  11.6km/h 9.6mph /  15.4km/h 98% 0in /  0.0mm
04:10 48.9 °F /  9.4 °C 48.2 °F /  9.0 °C 30.4in /  1028.0hPa WSW 7.6mph /  12.2km/h 9.4mph /  15.1km/h 98% 0in /  0.0mm
04:15 49.1 °F /  9.5 °C 50 °F /  10.0 °C 30.4in /  1028.0hPa WSW 9.4mph /  15.1km/h 9.4mph /  15.1km/h 98% 0in /  0.0mm
04:20 49.1 °F /  9.5 °C 50 °F /  10.0 °C 30.4in /  1028.0hPa WSW 7.8mph /  12.6km/h 11mph /  17.7km/h 98% 0in /  0.0mm
04:25 49.3 °F /  9.6 °C 50 °F /  10.0 °C 30.4in /  1028.0hPa WSW 10.5mph /  16.9km/h 11.4mph /  18.3km/h 98% 0in /  0.0mm
04:30 49.5 °F /  9.7 °C 50 °F /  10.0 °C 30.4in /  1028.0hPa WSW 10.1mph /  16.3km/h 11.4mph /  18.3km/h 98% 0in /  0.0mm
04:35 49.5 °F /  9.7 °C 50 °F /  10.0 °C 30.4in /  1028.0hPa WSW 11mph /  17.7km/h 13mph /  20.9km/h 98% 0in /  0.0mm
04:40 49.6 °F /  9.8 °C 50 °F /  10.0 °C 30.4in /  1028.0hPa WSW 10.5mph /  16.9km/h 13mph /  20.9km/h 98% 0in /  0.0mm
04:45 49.8 °F /  9.9 °C 50 °F /  10.0 °C 30.3in /  1027.0hPa West 10.7mph /  17.2km/h 13.4mph /  21.6km/h 98% 0in /  0.0mm
04:50 50 °F /  10.0 °C 50 °F /  10.0 °C 30.3in /  1027.0hPa WSW 10.1mph /  16.3km/h 13.4mph /  21.6km/h 98% 0in /  0.0mm
04:55 50 °F /  10.0 °C 50 °F /  10.0 °C 30.3in /  1027.0hPa WSW 10.3mph /  16.6km/h 12.1mph /  19.5km/h 98% 0in /  0.0mm
05:00 50 °F /  10.0 °C 50 °F /  10.0 °C 30.4in /  1028.0hPa WSW 8.5mph /  13.7km/h 12.1mph /  19.5km/h 98% 0in /  0.0mm
05:05 50.2 °F /  10.1 °C 50 °F /  10.0 °C 30.4in /  1028.0hPa West 9.4mph /  15.1km/h 13.2mph /  21.2km/h 98% 0in /  0.0mm
05:11 50.2 °F /  10.1 °C 50 °F /  10.0 °C 30.4in /  1028.0hPa WSW 11mph /  17.7km/h 13.2mph /  21.2km/h 98% 0in /  0.0mm
05:16 50.4 °F /  10.2 °C 50 °F /  10.0 °C 30.4in /  1028.0hPa WSW 7.2mph /  11.6km/h 14.1mph /  22.7km/h 98% 0in /  0.0mm
05:21 50.4 °F /  10.2 °C 50 °F /  10.0 °C 30.4in /  1028.0hPa WSW 8.5mph /  13.7km/h 14.1mph /  22.7km/h 98% 0in /  0.0mm
05:26 50.4 °F /  10.2 °C 50 °F /  10.0 °C 30.4in /  1028.0hPa WSW 9.8mph /  15.8km/h 13.2mph /  21.2km/h 98% 0in /  0.0mm
05:31 50.4 °F /  10.2 °C 50 °F /  10.0 °C 30.4in /  1028.0hPa WSW 7.6mph /  12.2km/h 12.1mph /  19.5km/h 98% 0in /  0.0mm
05:36 50.4 °F /  10.2 °C 50 °F /  10.0 °C 30.4in /  1028.0hPa West 7.6mph /  12.2km/h 11mph /  17.7km/h 98% 0in /  0.0mm
05:41 50.4 °F /  10.2 °C 50 °F /  10.0 °C 30.4in /  1028.0hPa WSW 6.3mph /  10.1km/h 10.5mph /  16.9km/h 98% 0in /  0.0mm
05:46 50.5 °F /  10.3 °C 50 °F /  10.0 °C 30.4in /  1029.0hPa WSW 6.3mph /  10.1km/h 10.5mph /  16.9km/h 98% 0in /  0.0mm
05:51 50.5 °F /  10.3 °C 50 °F /  10.0 °C 30.4in /  1029.0hPa West 5.6mph /  9.0km/h 10.5mph /  16.9km/h 98% 0in /  0.0mm
05:56 50.5 °F /  10.3 °C 50 °F /  10.0 °C 30.4in /  1029.0hPa WSW 6.9mph /  11.1km/h 10.7mph /  17.2km/h 98% 0in /  0.0mm
06:01 50.5 °F /  10.3 °C 50 °F /  10.0 °C 30.4in /  1029.0hPa West 6.5mph /  10.5km/h 10.7mph /  17.2km/h 98% 0in /  0.0mm
06:06 50.7 °F /  10.4 °C 50 °F /  10.0 °C 30.4in /  1029.0hPa West 9.6mph /  15.4km/h 10.1mph /  16.3km/h 98% 0in /  0.0mm
06:11 50.7 °F /  10.4 °C 50 °F /  10.0 °C 30.4in /  1029.0hPa WNW 6mph /  9.7km/h 10.1mph /  16.3km/h 98% 0in /  0.0mm
06:16 50.7 °F /  10.4 °C 50 °F /  10.0 °C 30.4in /  1029.0hPa WSW 7.6mph /  12.2km/h 10.3mph /  16.6km/h 98% 0in /  0.0mm
06:21 50.7 °F /  10.4 °C 50 °F /  10.0 °C 30.4in /  1029.0hPa WSW 9.6mph /  15.4km/h 10.7mph /  17.2km/h 98% 0in /  0.0mm
06:26 50.7 °F /  10.4 °C 50 °F /  10.0 °C 30.4in /  1029.0hPa West 10.5mph /  16.9km/h 10.7mph /  17.2km/h 98% 0in /  0.0mm
06:31 50.9 °F /  10.5 °C 51.8 °F /  11.0 °C 30.4in /  1029.0hPa West 10.1mph /  16.3km/h 12.8mph /  20.6km/h 98% 0in /  0.0mm
06:36 50.9 °F /  10.5 °C 51.8 °F /  11.0 °C 30.4in /  1029.0hPa WSW 9.4mph /  15.1km/h 13mph /  20.9km/h 98% 0in /  0.0mm
06:37 50.9 °F /  10.5 °C 51.8 °F /  11.0 °C 30.4in /  1029.0hPa West 10.5mph /  16.9km/h 13mph /  20.9km/h 98% 0in /  0.0mm
06:42 50.9 °F /  10.5 °C 51.8 °F /  11.0 °C 30.4in /  1029.0hPa West 6.3mph /  10.1km/h 13mph /  20.9km/h 98% 0in /  0.0mm
06:48 50.9 °F /  10.5 °C 51.8 °F /  11.0 °C 30.4in /  1029.0hPa WSW 8.7mph /  14.0km/h 10.5mph /  16.9km/h 98% 0in /  0.0mm
06:53 50.9 °F /  10.5 °C 51.8 °F /  11.0 °C 30.4in /  1029.0hPa WSW 7.8mph /  12.6km/h 12.1mph /  19.5km/h 98% 0in /  0.0mm
06:58 50.7 °F /  10.4 °C 50 °F /  10.0 °C 30.4in /  1029.0hPa WSW 5.8mph /  9.3km/h 12.1mph /  19.5km/h 98% 0in /  0.0mm
07:03 50.7 °F /  10.4 °C 50 °F /  10.0 °C 30.4in /  1028.0hPa WSW 8.1mph /  13.0km/h 11.2mph /  18.0km/h 98% 0in /  0.0mm
07:08 50.7 °F /  10.4 °C 50 °F /  10.0 °C 30.4in /  1028.0hPa WSW 5.8mph /  9.3km/h 10.3mph /  16.6km/h 98% 0in /  0.0mm
07:13 50.7 °F /  10.4 °C 50 °F /  10.0 °C 30.4in /  1028.0hPa WSW 7.2mph /  11.6km/h 9.8mph /  15.8km/h 98% 0in /  0.0mm
07:18 50.7 °F /  10.4 °C 50 °F /  10.0 °C 30.4in /  1029.0hPa WSW 8.1mph /  13.0km/h 9.8mph /  15.8km/h 98% 0in /  0.0mm
07:23 50.7 °F /  10.4 °C 50 °F /  10.0 °C 30.4in /  1029.0hPa WSW 5.8mph /  9.3km/h 8.9mph /  14.3km/h 98% 0in /  0.0mm
07:28 50.7 °F /  10.4 °C 50 °F /  10.0 °C 30.4in /  1029.0hPa WSW 6.5mph /  10.5km/h 8.7mph /  14.0km/h 98% 0in /  0.0mm
07:33 50.9 °F /  10.5 °C 51.8 °F /  11.0 °C 30.4in /  1029.0hPa WSW 12.3mph /  19.8km/h 14.1mph /  22.7km/h 98% 0in /  0.0mm
07:38 51.1 °F /  10.6 °C 51.8 °F /  11.0 °C 30.4in /  1029.0hPa WSW 10.1mph /  16.3km/h 14.1mph /  22.7km/h 98% 0in /  0.0mm
07:43 51.1 °F /  10.6 °C 51.8 °F /  11.0 °C 30.4in /  1029.0hPa WSW 12.3mph /  19.8km/h 14.8mph /  23.8km/h 98% 0in /  0.0mm
07:48 51.1 °F /  10.6 °C 51.8 °F /  11.0 °C 30.4in /  1029.0hPa WSW 10.1mph /  16.3km/h 14.8mph /  23.8km/h 98% 0in /  0.0mm
07:53 51.1 °F /  10.6 °C 51.8 °F /  11.0 °C 30.4in /  1029.0hPa WSW 6.7mph /  10.8km/h 15.2mph /  24.5km/h 98% 0in /  0.0mm
07:58 51.1 °F /  10.6 °C 51.8 °F /  11.0 °C 30.4in /  1029.0hPa WSW 10.1mph /  16.3km/h 15.2mph /  24.5km/h 98% 0in /  0.0mm
08:03 51.1 °F /  10.6 °C 51.8 °F /  11.0 °C 30.4in /  1030.0hPa WSW 5.6mph /  9.0km/h 11mph /  17.7km/h 98% 0in /  0.0mm
08:08 50.9 °F /  10.5 °C 51.8 °F /  11.0 °C 30.4in /  1030.0hPa WSW 6.5mph /  10.5km/h 11mph /  17.7km/h 98% 0in /  0.0mm
08:13 50.9 °F /  10.5 °C 51.8 °F /  11.0 °C 30.4in /  1030.0hPa WSW 8.5mph /  13.7km/h 10.1mph /  16.3km/h 98% 0in /  0.0mm
08:18 50.9 °F /  10.5 °C 51.8 °F /  11.0 °C 30.4in /  1030.0hPa WSW 6.3mph /  10.1km/h 12.3mph /  19.8km/h 98% 0in /  0.0mm
08:23 50.7 °F /  10.4 °C 50 °F /  10.0 °C 30.4in /  1030.0hPa WSW 6.3mph /  10.1km/h 12.3mph /  19.8km/h 98% 0in /  0.0mm
08:28 50.7 °F /  10.4 °C 50 °F /  10.0 °C 30.4in /  1030.0hPa Calm   7.2mph /  11.6km/h 98% 0in /  0.0mm
08:33 50.7 °F /  10.4 °C 50 °F /  10.0 °C 30.4in /  1030.0hPa SW 5.4mph /  8.7km/h 7.4mph /  11.9km/h 98% 0in /  0.0mm
08:38 50.7 °F /  10.4 °C 50 °F /  10.0 °C 30.4in /  1030.0hPa WSW 7.6mph /  12.2km/h 8.7mph /  14.0km/h 98% 0in /  0.0mm
08:43 50.7 °F /  10.4 °C 50 °F /  10.0 °C 30.4in /  1030.0hPa WSW 10.7mph /  17.2km/h 10.7mph /  17.2km/h 98% 0in /  0.0mm
08:48 50.7 °F /  10.4 °C 50 °F /  10.0 °C 30.4in /  1030.0hPa WSW 8.5mph /  13.7km/h 10.7mph /  17.2km/h 98% 0in /  0.0mm
08:53 50.9 °F /  10.5 °C 51.8 °F /  11.0 °C 30.4in /  1030.0hPa WSW 8.7mph /  14.0km/h 13.2mph /  21.2km/h 98% 0in /  0.0mm
08:58 50.9 °F /  10.5 °C 51.8 °F /  11.0 °C 30.4in /  1031.0hPa WSW 8.1mph /  13.0km/h 13.2mph /  21.2km/h 98% 0in /  0.0mm
09:03 51.1 °F /  10.6 °C 51.8 °F /  11.0 °C 30.4in /  1031.0hPa WSW 7.8mph /  12.6km/h 12.1mph /  19.5km/h 98% 0in /  0.0mm
09:08 51.1 °F /  10.6 °C 51.8 °F /  11.0 °C 30.4in /  1031.0hPa WSW 7.4mph /  11.9km/h 10.7mph /  17.2km/h 98% 0in /  0.0mm
09:13 51.1 °F /  10.6 °C 51.8 °F /  11.0 °C 30.4in /  1031.0hPa WSW 13mph /  20.9km/h 13mph /  20.9km/h 98% 0in /  0.0mm
09:18 51.1 °F /  10.6 °C 51.8 °F /  11.0 °C 30.4in /  1031.0hPa West 14.5mph /  23.3km/h 15.4mph /  24.8km/h 98% 0in /  0.0mm
09:24 51.3 °F /  10.7 °C 51.8 °F /  11.0 °C 30.4in /  1031.0hPa West 10.5mph /  16.9km/h 15.4mph /  24.8km/h 98% 0in /  0.0mm
09:29 51.3 °F /  10.7 °C 51.8 °F /  11.0 °C 30.4in /  1031.0hPa West 9.8mph /  15.8km/h 15.4mph /  24.8km/h 98% 0in /  0.0mm
09:34 51.4 °F /  10.8 °C 51.8 °F /  11.0 °C 30.4in /  1031.0hPa West 8.1mph /  13.0km/h 14.8mph /  23.8km/h 98% 0in /  0.0mm
09:39 51.4 °F /  10.8 °C 51.8 °F /  11.0 °C 30.4in /  1031.0hPa West 7.8mph /  12.6km/h 12.8mph /  20.6km/h 98% 0in /  0.0mm
09:44 51.4 °F /  10.8 °C 51.8 °F /  11.0 °C 30.4in /  1031.0hPa WSW 8.5mph /  13.7km/h 15.4mph /  24.8km/h 98% 0in /  0.0mm
09:49 51.4 °F /  10.8 °C 51.8 °F /  11.0 °C 30.4in /  1031.0hPa WSW 9.8mph /  15.8km/h 15.4mph /  24.8km/h 98% 0in /  0.0mm
09:54 51.4 °F /  10.8 °C 51.8 °F /  11.0 °C 30.4in /  1031.0hPa WSW 11.9mph /  19.1km/h 13.2mph /  21.2km/h 98% 0in /  0.0mm
09:59 51.6 °F /  10.9 °C 51.8 °F /  11.0 °C 30.5in /  1032.1hPa West 10.1mph /  16.3km/h 13.2mph /  21.2km/h 98% 0in /  0.0mm
10:04 51.6 °F /  10.9 °C 51.8 °F /  11.0 °C 30.5in /  1032.1hPa WSW 8.1mph /  13.0km/h 11.9mph /  19.1km/h 98% 0in /  0.0mm
10:09 51.6 °F /  10.9 °C 51.8 °F /  11.0 °C 30.5in /  1032.1hPa WSW 7.6mph /  12.2km/h 10.7mph /  17.2km/h 98% 0in /  0.0mm
10:14 51.8 °F /  11.0 °C 51.8 °F /  11.0 °C 30.4in /  1030.0hPa WSW 8.1mph /  13.0km/h 10.7mph /  17.2km/h 98% 0in /  0.0mm
10:19 51.8 °F /  11.0 °C 51.8 °F /  11.0 °C 30.4in /  1030.0hPa WSW 8.5mph /  13.7km/h 13mph /  20.9km/h 98% 0in /  0.0mm
10:24 51.8 °F /  11.0 °C 51.8 °F /  11.0 °C 30.4in /  1030.0hPa West 13.2mph /  21.2km/h 13.4mph /  21.6km/h 98% 0in /  0.0mm
10:29 52 °F /  11.1 °C 51.8 °F /  11.0 °C 30.4in /  1031.0hPa WSW 11mph /  17.7km/h 13.4mph /  21.6km/h 98% 0in /  0.0mm
10:34 52 °F /  11.1 °C 51.8 °F /  11.0 °C 30.4in /  1031.0hPa West 10.1mph /  16.3km/h 13.6mph /  21.9km/h 98% 0in /  0.0mm
10:39 52.2 °F /  11.2 °C 51.8 °F /  11.0 °C 30.4in /  1031.0hPa WSW 8.7mph /  14.0km/h 13.6mph /  21.9km/h 98% 0in /  0.0mm
10:45 52.2 °F /  11.2 °C 51.8 °F /  11.0 °C 30.4in /  1030.0hPa West 8.5mph /  13.7km/h 13.2mph /  21.2km/h 98% 0in /  0.0mm
10:50 52.3 °F /  11.3 °C 51.8 °F /  11.0 °C 30.4in /  1030.0hPa WSW 7.4mph /  11.9km/h 12.8mph /  20.6km/h 98% 0in /  0.0mm
10:55 52.5 °F /  11.4 °C 51.8 °F /  11.0 °C 30.4in /  1030.0hPa West 9.8mph /  15.8km/h 13mph /  20.9km/h 98% 0in /  0.0mm
11:00 52.5 °F /  11.4 °C 51.8 °F /  11.0 °C 30.4in /  1031.0hPa West 10.7mph /  17.2km/h 16.8mph /  27.0km/h 98% 0in /  0.0mm
11:05 52.5 °F /  11.4 °C 51.8 °F /  11.0 °C 30.4in /  1031.0hPa West 7.8mph /  12.6km/h 16.8mph /  27.0km/h 97% 0in /  0.0mm
11:10 52.7 °F /  11.5 °C 51.8 °F /  11.0 °C 30.4in /  1031.0hPa West 9.8mph /  15.8km/h 15.7mph /  25.3km/h 97% 0in /  0.0mm
11:15 52.7 °F /  11.5 °C 51.8 °F /  11.0 °C 30.4in /  1031.0hPa WSW 13.2mph /  21.2km/h 15.7mph /  25.3km/h 96% 0in /  0.0mm
11:20 52.7 °F /  11.5 °C 51.8 °F /  11.0 °C 30.4in /  1031.0hPa WSW 11mph /  17.7km/h 17mph /  27.4km/h 95% 0in /  0.0mm
11:25 52.9 °F /  11.6 °C 51.8 °F /  11.0 °C 30.4in /  1031.0hPa West 10.1mph /  16.3km/h 19.9mph /  32.0km/h 95% 0in /  0.0mm
11:30 53.1 °F /  11.7 °C 51.8 °F /  11.0 °C 30.4in /  1031.0hPa West 6.9mph /  11.1km/h 19.9mph /  32.0km/h 94% 0in /  0.0mm
11:35 53.1 °F /  11.7 °C 51.8 °F /  11.0 °C 30.4in /  1031.0hPa West 11mph /  17.7km/h 15.2mph /  24.5km/h 95% 0in /  0.0mm
11:40 53.2 °F /  11.8 °C 51.8 °F /  11.0 °C 30.4in /  1031.0hPa WSW 12.5mph /  20.1km/h 19.2mph /  30.9km/h 94% 0in /  0.0mm
11:45 53.4 °F /  11.9 °C 51.8 °F /  11.0 °C 30.4in /  1031.0hPa WSW 12.1mph /  19.5km/h 22.1mph /  35.6km/h 93% 0in /  0.0mm
11:50 53.4 °F /  11.9 °C 51.8 °F /  11.0 °C 30.4in /  1031.0hPa West 13mph /  20.9km/h 22.1mph /  35.6km/h 93% 0in /  0.0mm
11:55 53.6 °F /  12.0 °C 51.8 °F /  11.0 °C 30.4in /  1031.0hPa WSW 14.8mph /  23.8km/h 21mph /  33.8km/h 92% 0in /  0.0mm
12:00 53.6 °F /  12.0 °C 51.8 °F /  11.0 °C 30.4in /  1030.0hPa West 10.5mph /  16.9km/h 21mph /  33.8km/h 93% 0in /  0.0mm
12:06 53.6 °F /  12.0 °C 51.8 °F /  11.0 °C 30.4in /  1030.0hPa WSW 11mph /  17.7km/h 20.8mph /  33.5km/h 93% 0in /  0.0mm
12:11 53.8 °F /  12.1 °C 51.8 °F /  11.0 °C 30.4in /  1030.0hPa WSW 13.2mph /  21.2km/h 20.8mph /  33.5km/h 92% 0in /  0.0mm
12:16 54 °F /  12.2 °C 51.8 °F /  11.0 °C 30.4in /  1031.0hPa WSW 11.9mph /  19.1km/h 19.7mph /  31.7km/h 92% 0in /  0.0mm
12:21 54 °F /  12.2 °C 51.8 °F /  11.0 °C 30.4in /  1031.0hPa West 13mph /  20.9km/h 22.4mph /  36.0km/h 92% 0in /  0.0mm
12:26 54 °F /  12.2 °C 51.8 °F /  11.0 °C 30.4in /  1031.0hPa WSW 14.8mph /  23.8km/h 22.4mph /  36.0km/h 92% 0in /  0.0mm
12:31 54 °F /  12.2 °C 51.8 °F /  11.0 °C 30.4in /  1031.0hPa West 11.2mph /  18.0km/h 18.1mph /  29.1km/h 92% 0in /  0.0mm
12:36 54 °F /  12.2 °C 51.8 °F /  11.0 °C 30.4in /  1031.0hPa West 10.3mph /  16.6km/h 22.1mph /  35.6km/h 92% 0in /  0.0mm
12:41 53.8 °F /  12.1 °C 51.8 °F /  11.0 °C 30.4in /  1031.0hPa West 9.8mph /  15.8km/h 22.1mph /  35.6km/h 92% 0in /  0.0mm
12:46 54 °F /  12.2 °C 51.8 °F /  11.0 °C 30.4in /  1031.0hPa West 15.4mph /  24.8km/h 21.9mph /  35.2km/h 92% 0in /  0.0mm
12:51 53.8 °F /  12.1 °C 51.8 °F /  11.0 °C 30.4in /  1031.0hPa West 17.2mph /  27.7km/h 21.9mph /  35.2km/h 92% 0in /  0.0mm
12:56 53.8 °F /  12.1 °C 51.8 °F /  11.0 °C 30.4in /  1031.0hPa West 12.8mph /  20.6km/h 21mph /  33.8km/h 93% 0in /  0.0mm
13:01 53.8 °F /  12.1 °C 51.8 °F /  11.0 °C 30.4in /  1031.0hPa West 11mph /  17.7km/h 17mph /  27.4km/h 93% 0in /  0.0mm
13:06 53.8 °F /  12.1 °C 51.8 °F /  11.0 °C 30.4in /  1031.0hPa West 17.4mph /  28.0km/h 26.4mph /  42.5km/h 93% 0in /  0.0mm
13:11 53.8 °F /  12.1 °C 51.8 °F /  11.0 °C 30.4in /  1031.0hPa WSW 13.6mph /  21.9km/h 26.4mph /  42.5km/h 93% 0in /  0.0mm
13:16 53.8 °F /  12.1 °C 51.8 °F /  11.0 °C 30.4in /  1031.0hPa West 14.5mph /  23.3km/h 20.8mph /  33.5km/h 93% 0in /  0.0mm
13:21 53.8 °F /  12.1 °C 51.8 °F /  11.0 °C 30.4in /  1031.0hPa West 10.7mph /  17.2km/h 17.7mph /  28.5km/h 93% 0in /  0.0mm
13:26 53.6 °F /  12.0 °C 51.8 °F /  11.0 °C 30.4in /  1031.0hPa West 19.9mph /  32.0km/h 20.8mph /  33.5km/h 93% 0in /  0.0mm
13:31 53.4 °F /  11.9 °C 51.8 °F /  11.0 °C 30.4in /  1031.0hPa West 18.8mph /  30.2km/h 20.8mph /  33.5km/h 93% 0in /  0.0mm
13:36 53.4 °F /  11.9 °C 51.8 °F /  11.0 °C 30.4in /  1031.0hPa West 13mph /  20.9km/h 20.4mph /  32.8km/h 93% 0in /  0.0mm
13:41 53.2 °F /  11.8 °C 51.8 °F /  11.0 °C 30.4in /  1031.0hPa West 14.8mph /  23.8km/h 22.4mph /  36.0km/h 93% 0in /  0.0mm
13:46 53.2 °F /  11.8 °C 51.8 °F /  11.0 °C 30.4in /  1031.0hPa West 16.8mph /  27.0km/h 23mph /  37.0km/h 93% 0in /  0.0mm
13:51 53.2 °F /  11.8 °C 51.8 °F /  11.0 °C 30.4in /  1031.0hPa WSW 15.2mph /  24.5km/h 23mph /  37.0km/h 93% 0in /  0.0mm
13:56 53.2 °F /  11.8 °C 51.8 °F /  11.0 °C 30.4in /  1031.0hPa West 13.4mph /  21.6km/h 19.5mph /  31.4km/h 93% 0in /  0.0mm
14:01 53.1 °F /  11.7 °C 51.8 °F /  11.0 °C 30.4in /  1031.0hPa WSW 19.2mph /  30.9km/h 22.8mph /  36.7km/h 93% 0in /  0.0mm
14:06 53.2 °F /  11.8 °C 51.8 °F /  11.0 °C 30.4in /  1031.0hPa WSW 17.7mph /  28.5km/h 22.8mph /  36.7km/h 93% 0in /  0.0mm
14:11 53.4 °F /  11.9 °C 51.8 °F /  11.0 °C 30.4in /  1031.0hPa West 8.5mph /  13.7km/h 19.5mph /  31.4km/h 93% 0in /  0.0mm
14:16 53.6 °F /  12.0 °C 51.8 °F /  11.0 °C 30.4in /  1030.0hPa West 8.5mph /  13.7km/h 17.7mph /  28.5km/h 93% 0in /  0.0mm
14:21 53.8 °F /  12.1 °C 51.8 °F /  11.0 °C 30.4in /  1030.0hPa West 8.5mph /  13.7km/h 8.5mph /  13.7km/h 93% 0in /  0.0mm
14:26 53.8 °F /  12.1 °C 51.8 °F /  11.0 °C 30.4in /  1030.0hPa West 8.5mph /  13.7km/h 8.5mph /  13.7km/h 92% 0in /  0.0mm
14:31 53.8 °F /  12.1 °C 51.8 °F /  11.0 °C 30.4in /  1031.0hPa West 8.5mph /  13.7km/h 8.5mph /  13.7km/h 92% 0in /  0.0mm
14:36 53.4 °F /  11.9 °C 51.8 °F /  11.0 °C 30.4in /  1031.0hPa West 8.5mph /  13.7km/h 8.5mph /  13.7km/h 92% 0in /  0.0mm
14:42 53.4 °F /  11.9 °C 51.8 °F /  11.0 °C 30.4in /  1031.0hPa West 8.5mph /  13.7km/h 8.5mph /  13.7km/h 92% 0in /  0.0mm
14:47 53.2 °F /  11.8 °C 51.8 °F /  11.0 °C 30.4in /  1031.0hPa West 8.5mph /  13.7km/h 8.5mph /  13.7km/h 93% 0in /  0.0mm
14:52 53.2 °F /  11.8 °C 51.8 °F /  11.0 °C 30.4in /  1031.0hPa West 8.5mph /  13.7km/h 8.5mph /  13.7km/h 93% 0in /  0.0mm
14:57 53.2 °F /  11.8 °C 51.8 °F /  11.0 °C 30.4in /  1031.0hPa West 8.5mph /  13.7km/h 8.5mph /  13.7km/h 93% 0in /  0.0mm
15:02 53.1 °F /  11.7 °C 51.8 °F /  11.0 °C 30.4in /  1031.0hPa West 8.5mph /  13.7km/h 8.5mph /  13.7km/h 93% 0in /  0.0mm
15:07 53.2 °F /  11.8 °C 51.8 °F /  11.0 °C 30.4in /  1031.0hPa WSW 10.1mph /  16.3km/h 10.1mph /  16.3km/h 93% 0in /  0.0mm
15:12 53.4 °F /  11.9 °C 51.8 °F /  11.0 °C 30.4in /  1031.0hPa WSW 10.1mph /  16.3km/h 10.1mph /  16.3km/h 93% 0in /  0.0mm
15:17 53.4 °F /  11.9 °C 51.8 °F /  11.0 °C 30.4in /  1031.0hPa WSW 10.1mph /  16.3km/h 10.1mph /  16.3km/h 92% 0in /  0.0mm
15:22 53.4 °F /  11.9 °C 51.8 °F /  11.0 °C 30.4in /  1031.0hPa WSW 18.6mph /  29.9km/h 18.6mph /  29.9km/h 92% 0in /  0.0mm
15:27 53.4 °F /  11.9 °C 51.8 °F /  11.0 °C 30.4in /  1031.0hPa WSW 22.4mph /  36.0km/h 22.4mph /  36.0km/h 92% 0in /  0.0mm
15:32 53.2 °F /  11.8 °C 50 °F /  10.0 °C 30.4in /  1031.0hPa West 23.9mph /  38.5km/h 23.9mph /  38.5km/h 92% 0in /  0.0mm
15:37 53.1 °F /  11.7 °C 50 °F /  10.0 °C 30.4in /  1031.0hPa WSW 21.9mph /  35.2km/h 23.9mph /  38.5km/h 92% 0in /  0.0mm
15:42 53.1 °F /  11.7 °C 50 °F /  10.0 °C 30.4in /  1031.0hPa West 19.9mph /  32.0km/h 23.9mph /  38.5km/h 92% 0in /  0.0mm
15:47 53.2 °F /  11.8 °C 51.8 °F /  11.0 °C 30.4in /  1031.0hPa West 19.9mph /  32.0km/h 21.9mph /  35.2km/h 93% 0in /  0.0mm
15:52 53.2 °F /  11.8 °C 50 °F /  10.0 °C 30.4in /  1031.0hPa West 20.4mph /  32.8km/h 20.4mph /  32.8km/h 92% 0in /  0.0mm
15:57 53.2 °F /  11.8 °C 50 °F /  10.0 °C 30.4in /  1031.0hPa West 18.6mph /  29.9km/h 20.4mph /  32.8km/h 92% 0in /  0.0mm
16:03 53.2 °F /  11.8 °C 51.8 °F /  11.0 °C 30.4in /  1030.0hPa West 18.6mph /  29.9km/h 20.4mph /  32.8km/h 93% 0in /  0.0mm
16:08 53.2 °F /  11.8 °C 51.8 °F /  11.0 °C 30.4in /  1030.0hPa West 18.6mph /  29.9km/h 18.6mph /  29.9km/h 93% 0in /  0.0mm
16:13 53.2 °F /  11.8 °C 50 °F /  10.0 °C 30.4in /  1030.0hPa West 18.6mph /  29.9km/h 18.6mph /  29.9km/h 92% 0in /  0.0mm
16:18 53.1 °F /  11.7 °C 50 °F /  10.0 °C 30.4in /  1031.0hPa West 18.6mph /  29.9km/h 18.6mph /  29.9km/h 92% 0in /  0.0mm
16:23 53.1 °F /  11.7 °C 50 °F /  10.0 °C 30.4in /  1031.0hPa West 18.6mph /  29.9km/h 18.6mph /  29.9km/h 92% 0in /  0.0mm
16:28 53.1 °F /  11.7 °C 50 °F /  10.0 °C 30.4in /  1031.0hPa West 18.6mph /  29.9km/h 18.6mph /  29.9km/h 92% 0in /  0.0mm
16:33 52.9 °F /  11.6 °C 50 °F /  10.0 °C 30.4in /  1031.0hPa West 18.6mph /  29.9km/h 18.6mph /  29.9km/h 92% 0in /  0.0mm
16:38 52.9 °F /  11.6 °C 50 °F /  10.0 °C 30.4in /  1031.0hPa WSW 22.6mph /  36.4km/h 22.6mph /  36.4km/h 92% 0in /  0.0mm
16:43 52.7 °F /  11.5 °C 50 °F /  10.0 °C 30.4in /  1031.0hPa West 19.9mph /  32.0km/h 22.6mph /  36.4km/h 91% 0in /  0.0mm
16:48 52.7 °F /  11.5 °C 50 °F /  10.0 °C 30.4in /  1031.0hPa West 17.2mph /  27.7km/h 22.6mph /  36.4km/h 92% 0in /  0.0mm
16:53 52.5 °F /  11.4 °C 50 °F /  10.0 °C 30.4in /  1031.0hPa WSW 12.5mph /  20.1km/h 19.9mph /  32.0km/h 93% 0in /  0.0mm
16:58 52.5 °F /  11.4 °C 50 °F /  10.0 °C 30.4in /  1031.0hPa WSW 15.4mph /  24.8km/h 23.7mph /  38.1km/h 93% 0in /  0.0mm
17:03 52.3 °F /  11.3 °C 50 °F /  10.0 °C 30.4in /  1031.0hPa WSW 17.2mph /  27.7km/h 23.7mph /  38.1km/h 94% 0in /  0.0mm
17:08 52.3 °F /  11.3 °C 50 °F /  10.0 °C 30.4in /  1031.0hPa WSW 12.5mph /  20.1km/h 17.7mph /  28.5km/h 94% 0in /  0.0mm
17:13 52.2 °F /  11.2 °C 50 °F /  10.0 °C 30.4in /  1031.0hPa WSW 20.4mph /  32.8km/h 22.8mph /  36.7km/h 94% 0in /  0.0mm
17:18 52.2 °F /  11.2 °C 50 °F /  10.0 °C 30.4in /  1031.0hPa WSW 17.2mph /  27.7km/h 22.8mph /  36.7km/h 94% 0in /  0.0mm
17:23 52.2 °F /  11.2 °C 50 °F /  10.0 °C 30.4in /  1031.0hPa WSW 13.2mph /  21.2km/h 23.9mph /  38.5km/h 94% 0in /  0.0mm
17:28 52.2 °F /  11.2 °C 50 °F /  10.0 °C 30.4in /  1031.0hPa WSW 17.9mph /  28.8km/h 23.9mph /  38.5km/h 94% 0in /  0.0mm
17:34 52 °F /  11.1 °C 50 °F /  10.0 °C 30.4in /  1031.0hPa WSW 10.3mph /  16.6km/h 18.8mph /  30.2km/h 94% 0in /  0.0mm
17:39 52 °F /  11.1 °C 50 °F /  10.0 °C 30.4in /  1031.0hPa WSW 17.2mph /  27.7km/h 18.8mph /  30.2km/h 94% 0in /  0.0mm
17:44 51.8 °F /  11.0 °C 50 °F /  10.0 °C 30.4in /  1031.0hPa WSW 17.7mph /  28.5km/h 20.1mph /  32.3km/h 94% 0in /  0.0mm
17:49 51.8 °F /  11.0 °C 50 °F /  10.0 °C 30.4in /  1031.0hPa WSW 17.7mph /  28.5km/h 23mph /  37.0km/h 94% 0in /  0.0mm
17:54 51.6 °F /  10.9 °C 50 °F /  10.0 °C 30.4in /  1031.0hPa WSW 12.8mph /  20.6km/h 23mph /  37.0km/h 95% 0in /  0.0mm
17:59 51.6 °F /  10.9 °C 50 °F /  10.0 °C 30.4in /  1031.0hPa WSW 15.2mph /  24.5km/h 19.5mph /  31.4km/h 95% 0in /  0.0mm
18:04 51.6 °F /  10.9 °C 50 °F /  10.0 °C 30.4in /  1031.0hPa WSW 15.2mph /  24.5km/h 19.7mph /  31.7km/h 95% 0in /  0.0mm
18:09 51.6 °F /  10.9 °C 51.8 °F /  11.0 °C 30.4in /  1031.0hPa WSW 10.1mph /  16.3km/h 19.7mph /  31.7km/h 96% 0in /  0.0mm
18:14 51.6 °F /  10.9 °C 51.8 °F /  11.0 °C 30.4in /  1030.0hPa WSW 11mph /  17.7km/h 17.2mph /  27.7km/h 96% 0in /  0.0mm
18:19 51.4 °F /  10.8 °C 50 °F /  10.0 °C 30.4in /  1030.0hPa WSW 10.5mph /  16.9km/h 15.2mph /  24.5km/h 96% 0in /  0.0mm
18:24 51.4 °F /  10.8 °C 50 °F /  10.0 °C 30.4in /  1030.0hPa WSW 10.1mph /  16.3km/h 13.2mph /  21.2km/h 96% 0in /  0.0mm
18:28 51.4 °F /  10.8 °C 50 °F /  10.0 °C 30.4in /  1030.0hPa WSW 10.7mph /  17.2km/h 13.9mph /  22.4km/h 96% 0in /  0.0mm
18:33 51.4 °F /  10.8 °C 50 °F /  10.0 °C 30.4in /  1031.0hPa WSW 9.8mph /  15.8km/h 14.5mph /  23.3km/h 96% 0in /  0.0mm
18:38 51.4 °F /  10.8 °C 50 °F /  10.0 °C 30.4in /  1031.0hPa WSW 12.3mph /  19.8km/h 14.5mph /  23.3km/h 97% 0in /  0.0mm
18:43 51.4 °F /  10.8 °C 50 °F /  10.0 °C 30.4in /  1031.0hPa WSW 11mph /  17.7km/h 12.8mph /  20.6km/h 97% 0in /  0.0mm
18:48 51.4 °F /  10.8 °C 50 °F /  10.0 °C 30.4in /  1031.0hPa WSW 7.8mph /  12.6km/h 12.8mph /  20.6km/h 97% 0in /  0.0mm
18:53 51.4 °F /  10.8 °C 50 °F /  10.0 °C 30.4in /  1031.0hPa West 10.1mph /  16.3km/h 10.7mph /  17.2km/h 97% 0in /  0.0mm
18:58 51.4 °F /  10.8 °C 50 °F /  10.0 °C 30.4in /  1031.0hPa WSW 9.8mph /  15.8km/h 10.7mph /  17.2km/h 97% 0in /  0.0mm
19:03 51.4 °F /  10.8 °C 50 °F /  10.0 °C 30.4in /  1031.0hPa WSW 10.3mph /  16.6km/h 11.2mph /  18.0km/h 97% 0in /  0.0mm
19:08 51.4 °F /  10.8 °C 50 °F /  10.0 °C 30.4in /  1031.0hPa West 13.6mph /  21.9km/h 13.6mph /  21.9km/h 97% 0in /  0.0mm
19:13 51.4 °F /  10.8 °C 50 °F /  10.0 °C 30.4in /  1031.0hPa WSW 12.1mph /  19.5km/h 13.9mph /  22.4km/h 97% 0in /  0.0mm
19:18 51.6 °F /  10.9 °C 51.8 °F /  11.0 °C 30.4in /  1031.0hPa WSW 13.2mph /  21.2km/h 13.9mph /  22.4km/h 97% 0in /  0.0mm
19:23 51.6 °F /  10.9 °C 51.8 °F /  11.0 °C 30.4in /  1031.0hPa WSW 14.8mph /  23.8km/h 14.8mph /  23.8km/h 97% 0in /  0.0mm
19:28 51.6 °F /  10.9 °C 51.8 °F /  11.0 °C 30.4in /  1031.0hPa WSW 10.5mph /  16.9km/h 14.8mph /  23.8km/h 97% 0in /  0.0mm
19:33 51.6 °F /  10.9 °C 51.8 °F /  11.0 °C 30.4in /  1031.0hPa WSW 11mph /  17.7km/h 15.4mph /  24.8km/h 97% 0in /  0.0mm
19:38 51.6 °F /  10.9 °C 51.8 °F /  11.0 °C 30.4in /  1031.0hPa WSW 12.8mph /  20.6km/h 15.4mph /  24.8km/h 97% 0in /  0.0mm
19:43 51.6 °F /  10.9 °C 51.8 °F /  11.0 °C 30.4in /  1031.0hPa WSW 14.3mph /  23.0km/h 16.3mph /  26.2km/h 97% 0in /  0.0mm
19:49 51.6 °F /  10.9 °C 51.8 °F /  11.0 °C 30.4in /  1031.0hPa WSW 10.3mph /  16.6km/h 16.3mph /  26.2km/h 97% 0in /  0.0mm
19:54 51.4 °F /  10.8 °C 50 °F /  10.0 °C 30.4in /  1031.0hPa WSW 14.5mph /  23.3km/h 19.7mph /  31.7km/h 97% 0in /  0.0mm
19:59 51.4 °F /  10.8 °C 51.8 °F /  11.0 °C 30.4in /  1031.0hPa WSW 17.7mph /  28.5km/h 19.7mph /  31.7km/h 98% 0in /  0.0mm
20:04 51.4 °F /  10.8 °C 51.8 °F /  11.0 °C 30.4in /  1031.0hPa WSW 10.5mph /  16.9km/h 17.7mph /  28.5km/h 98% 0in /  0.0mm
20:09 51.4 °F /  10.8 °C 51.8 °F /  11.0 °C 30.4in /  1031.0hPa WSW 15.7mph /  25.3km/h 17.7mph /  28.5km/h 98% 0in /  0.0mm
20:14 51.4 °F /  10.8 °C 51.8 °F /  11.0 °C 30.4in /  1030.0hPa West 12.3mph /  19.8km/h 17.7mph /  28.5km/h 98% 0in /  0.0mm
20:19 51.4 °F /  10.8 °C 51.8 °F /  11.0 °C 30.4in /  1030.0hPa WSW 16.1mph /  25.9km/h 17.7mph /  28.5km/h 98% 0in /  0.0mm
20:24 51.4 °F /  10.8 °C 51.8 °F /  11.0 °C 30.4in /  1030.0hPa West 14.1mph /  22.7km/h 17mph /  27.4km/h 98% 0in /  0.0mm
20:29 51.3 °F /  10.7 °C 51.8 °F /  11.0 °C 30.4in /  1030.0hPa WSW 9.6mph /  15.4km/h 17mph /  27.4km/h 98% 0in /  0.0mm
20:34 51.3 °F /  10.7 °C 51.8 °F /  11.0 °C 30.4in /  1030.0hPa WSW 10.5mph /  16.9km/h 17.2mph /  27.7km/h 98% 0in /  0.0mm
20:39 51.3 °F /  10.7 °C 51.8 °F /  11.0 °C 30.4in /  1030.0hPa WSW 15.4mph /  24.8km/h 19.9mph /  32.0km/h 98% 0in /  0.0mm
20:44 51.3 °F /  10.7 °C 51.8 °F /  11.0 °C 30.4in /  1030.0hPa WSW 13mph /  20.9km/h 20.6mph /  33.1km/h 98% 0in /  0.0mm
20:49 51.3 °F /  10.7 °C 51.8 °F /  11.0 °C 30.4in /  1030.0hPa WSW 15.9mph /  25.6km/h 20.6mph /  33.1km/h 98% 0in /  0.0mm
20:54 51.3 °F /  10.7 °C 51.8 °F /  11.0 °C 30.4in /  1030.0hPa WSW 15.4mph /  24.8km/h 17.9mph /  28.8km/h 98% 0in /  0.0mm
20:59 51.1 °F /  10.6 °C 51.8 °F /  11.0 °C 30.4in /  1031.0hPa WSW 12.8mph /  20.6km/h 16.6mph /  26.7km/h 98% 0in /  0.0mm
21:04 51.1 °F /  10.6 °C 51.8 °F /  11.0 °C 30.4in /  1031.0hPa WSW 9.8mph /  15.8km/h 15.7mph /  25.3km/h 98% 0in /  0.0mm
21:09 51.1 °F /  10.6 °C 51.8 °F /  11.0 °C 30.4in /  1031.0hPa WSW 12.8mph /  20.6km/h 15.7mph /  25.3km/h 98% 0in /  0.0mm
21:14 51.1 °F /  10.6 °C 51.8 °F /  11.0 °C 30.4in /  1031.0hPa WSW 13.2mph /  21.2km/h 15.4mph /  24.8km/h 98% 0in /  0.0mm
21:20 51.1 °F /  10.6 °C 51.8 °F /  11.0 °C 30.4in /  1031.0hPa WSW 11mph /  17.7km/h 15.4mph /  24.8km/h 98% 0in /  0.0mm
21:25 51.1 °F /  10.6 °C 51.8 °F /  11.0 °C 30.4in /  1031.0hPa WSW 12.5mph /  20.1km/h 15.2mph /  24.5km/h 98% 0in /  0.0mm
21:30 51.1 °F /  10.6 °C 51.8 °F /  11.0 °C 30.4in /  1031.0hPa SW 8.7mph /  14.0km/h 15.2mph /  24.5km/h 98% 0in /  0.0mm
21:35 51.1 °F /  10.6 °C 51.8 °F /  11.0 °C 30.4in /  1031.0hPa WSW 13mph /  20.9km/h 14.8mph /  23.8km/h 98% 0in /  0.0mm
21:40 51.1 °F /  10.6 °C 51.8 °F /  11.0 °C 30.4in /  1031.0hPa WSW 13.2mph /  21.2km/h 14.8mph /  23.8km/h 98% 0in /  0.0mm
21:45 51.1 °F /  10.6 °C 51.8 °F /  11.0 °C 30.4in /  1030.0hPa WSW 12.3mph /  19.8km/h 14.8mph /  23.8km/h 98% 0in /  0.0mm
21:50 51.3 °F /  10.7 °C 51.8 °F /  11.0 °C 30.4in /  1030.0hPa WSW 8.1mph /  13.0km/h 15.4mph /  24.8km/h 98% 0in /  0.0mm
21:56 51.3 °F /  10.7 °C 51.8 °F /  11.0 °C 30.4in /  1030.0hPa WSW 10.5mph /  16.9km/h 15.4mph /  24.8km/h 98% 0in /  0.0mm
22:01 51.3 °F /  10.7 °C 51.8 °F /  11.0 °C 30.4in /  1030.0hPa WSW 11mph /  17.7km/h 13.2mph /  21.2km/h 98% 0in /  0.0mm
22:06 51.4 °F /  10.8 °C 51.8 °F /  11.0 °C 30.4in /  1030.0hPa WSW 11mph /  17.7km/h 13mph /  20.9km/h 98% 0in /  0.0mm
22:11 51.4 °F /  10.8 °C 51.8 °F /  11.0 °C 30.4in /  1030.0hPa WSW 12.1mph /  19.5km/h 13.6mph /  21.9km/h 98% 0in /  0.0mm
22:16 51.4 °F /  10.8 °C 51.8 °F /  11.0 °C 30.4in /  1031.0hPa WSW 12.8mph /  20.6km/h 14.1mph /  22.7km/h 98% 0in /  0.0mm
22:21 51.4 °F /  10.8 °C 51.8 °F /  11.0 °C 30.4in /  1031.0hPa SW 8.1mph /  13.0km/h 14.1mph /  22.7km/h 98% 0in /  0.0mm
22:26 51.4 °F /  10.8 °C 51.8 °F /  11.0 °C 30.4in /  1031.0hPa WSW 11mph /  17.7km/h 12.8mph /  20.6km/h 98% 0in /  0.0mm
22:31 51.4 °F /  10.8 °C 51.8 °F /  11.0 °C 30.4in /  1031.0hPa WSW 10.7mph /  17.2km/h 12.5mph /  20.1km/h 98% 0in /  0.0mm
22:36 51.4 °F /  10.8 °C 51.8 °F /  11.0 °C 30.4in /  1031.0hPa WSW 7.8mph /  12.6km/h 12.1mph /  19.5km/h 98% 0in /  0.0mm
22:41 51.6 °F /  10.9 °C 51.8 °F /  11.0 °C 30.4in /  1031.0hPa WSW 8.1mph /  13.0km/h 13.2mph /  21.2km/h 98% 0in /  0.0mm
22:46 51.4 °F /  10.8 °C 51.8 °F /  11.0 °C 30.4in /  1031.0hPa SW 9.2mph /  14.8km/h 13.2mph /  21.2km/h 98% 0in /  0.0mm
22:51 51.6 °F /  10.9 °C 51.8 °F /  11.0 °C 30.4in /  1031.0hPa WSW 10.3mph /  16.6km/h 12.5mph /  20.1km/h 98% 0in /  0.0mm
22:56 51.6 °F /  10.9 °C 51.8 °F /  11.0 °C 30.4in /  1031.0hPa WSW 9.8mph /  15.8km/h 16.8mph /  27.0km/h 98% 0in /  0.0mm
23:01 51.6 °F /  10.9 °C 51.8 °F /  11.0 °C 30.4in /  1031.0hPa WSW 12.8mph /  20.6km/h 18.1mph /  29.1km/h 98% 0in /  0.0mm
23:06 51.6 °F /  10.9 °C 51.8 °F /  11.0 °C 30.4in /  1031.0hPa West 13mph /  20.9km/h 18.1mph /  29.1km/h 98% 0in /  0.0mm
23:11 51.6 °F /  10.9 °C 51.8 °F /  11.0 °C 30.4in /  1031.0hPa WSW 14.8mph /  23.8km/h 20.1mph /  32.3km/h 98% 0in /  0.0mm
23:16 51.8 °F /  11.0 °C 51.8 °F /  11.0 °C 30.4in /  1031.0hPa WSW 13.9mph /  22.4km/h 20.1mph /  32.3km/h 98% 0in /  0.0mm
23:22 52 °F /  11.1 °C 51.8 °F /  11.0 °C 30.4in /  1031.0hPa WSW 14.1mph /  22.7km/h 19.7mph /  31.7km/h 98% 0in /  0.0mm
23:27 52 °F /  11.1 °C 51.8 °F /  11.0 °C 30.4in /  1031.0hPa WSW 13.6mph /  21.9km/h 19.7mph /  31.7km/h 97% 0in /  0.0mm
23:32 52 °F /  11.1 °C 51.8 °F /  11.0 °C 30.4in /  1031.0hPa West 17.7mph /  28.5km/h 18.1mph /  29.1km/h 97% 0in /  0.0mm
23:37 52 °F /  11.1 °C 51.8 °F /  11.0 °C 30.4in /  1031.0hPa WSW 12.8mph /  20.6km/h 19.9mph /  32.0km/h 97% 0in /  0.0mm
23:42 52 °F /  11.1 °C 51.8 °F /  11.0 °C 30.4in /  1031.0hPa WSW 8.1mph /  13.0km/h 19.9mph /  32.0km/h 97% 0in /  0.0mm
23:47 52 °F /  11.1 °C 51.8 °F /  11.0 °C 30.4in /  1031.0hPa West 14.3mph /  23.0km/h 17.7mph /  28.5km/h 97% 0in /  0.0mm
23:52 52 °F /  11.1 °C 51.8 °F /  11.0 °C 30.4in /  1031.0hPa WSW 8.5mph /  13.7km/h 17.7mph /  28.5km/h 97% 0in /  0.0mm
23:57 52 °F /  11.1 °C 51.8 °F /  11.0 °C 30.4in /  1031.0hPa WSW 10.3mph /  16.6km/h 17.2mph /  27.7km/h 97% 0in /  0.0mm
Données Historique de Météo Turbie

Mise a jour : 22/05/2018 19:52:12
Généré par Cumulus 1.9.4 (1099)